| time (UTC) | temp C | wind direction | speed KPH | gust KPH | rain 1hr cm | rain 24hr cm | rain mn cm | humidity % | barometer mb |
| 20260507093019 | 5 | 234 | 12.9 | 24.1 | 0.00 | 0.00 | 0.00 | 69 | 1011.7 |
| 20260507091528 | 5 | 244 | 11.3 | 24.1 | 0.00 | 0.00 | 0.00 | 68 | 1011.8 |
| 20260507090010 | 6 | 240 | 16.1 | 27.4 | 0.00 | 0.00 | 0.00 | 67 | 1011.9 |
| 20260507084510 | 6 | 237 | 12.9 | 27.4 | 0.00 | 0.00 | 0.00 | 67 | 1012.0 |
| 20260507083016 | 6 | 237 | 14.5 | 24.1 | 0.00 | 0.00 | 0.00 | 66 | 1012.2 |
| 20260507081520 | 6 | 257 | 17.7 | 27.4 | 0.00 | 0.00 | 0.00 | 66 | 1012.3 |
| 20260507080022 | 6 | 243 | 16.1 | 25.7 | 0.00 | 0.00 | 0.00 | 66 | 1012.5 |
| 20260507074506 | 6 | 242 | 11.3 | 24.1 | 0.00 | 0.00 | 0.00 | 66 | 1012.5 |
| 20260507073012 | 6 | 221 | 11.3 | 20.9 | 0.00 | 0.00 | 0.00 | 66 | 1012.7 |
| 20260507071518 | 6 | 236 | 11.3 | 24.1 | 0.00 | 0.00 | 0.00 | 66 | 1013.0 |
| 20260507070038 | 6 | 241 | 12.9 | 25.7 | 0.00 | 0.00 | 0.00 | 65 | 1013.0 |
| 20260507064523 | 6 | 232 | 12.9 | 30.6 | 0.00 | 0.00 | 0.00 | 64 | 1013.2 |
| 20260507063026 | 7 | 225 | 14.5 | 24.1 | 0.00 | 0.00 | 0.00 | 63 | 1013.2 |
| 20260507061514 | 7 | 207 | 12.9 | 27.4 | 0.00 | 0.00 | 0.00 | 62 | 1013.3 |
| 20260507060021 | 7 | 222 | 14.5 | 25.7 | 0.00 | 0.00 | 0.00 | 59 | 1013.5 |
| 20260507054526 | 7 | 237 | 12.9 | 24.1 | 0.00 | 0.00 | 0.00 | 57 | 1013.6 |
| 20260507053026 | 6 | 211 | 8.0 | 16.1 | 0.00 | 0.00 | 0.00 | 56 | 1013.8 |
| 20260507051526 | 5 | 203 | 1.6 | 6.4 | 0.00 | 0.00 | 0.00 | 55 | 1014.1 |
| 20260507050032 | 5 | 185 | 1.6 | 6.4 | 0.00 | 0.00 | 0.00 | 53 | 1014.2 |
| 20260507044522 | 4 | 170 | 1.6 | 6.4 | 0.00 | 0.00 | 0.00 | 51 | 1014.3 |
| 20260507043024 | 4 | 190 | 1.6 | 3.2 | 0.00 | 0.00 | 0.00 | 48 | 1014.6 |
| 20260507041526 | 4 | 136 | 0.0 | 3.2 | 0.00 | 0.00 | 0.00 | 46 | 1014.6 |
| 20260507040028 | 4 | 136 | 0.0 | 3.2 | 0.00 | 0.00 | 0.00 | 44 | 1014.7 |
| 20260507034522 | 4 | 136 | 1.6 | 3.2 | 0.00 | 0.00 | 0.00 | 43 | 1014.9 |
| 20260507033031 | 5 | 121 | 3.2 | 6.4 | 0.00 | 0.00 | 0.00 | 41 | 1014.9 |
| 20260507031532 | 5 | 223 | 0.0 | 1.6 | 0.00 | 0.00 | 0.00 | 40 | 1014.9 |
| 20260507030025 | 6 | 223 | 0.0 | 3.2 | 0.00 | 0.00 | 0.00 | 39 | 1015.0 |
| 20260507024529 | 7 | 223 | 1.6 | 4.8 | 0.00 | 0.00 | 0.00 | 36 | 1015.2 |
| 20260507023022 | 7 | 229 | 0.0 | 1.6 | 0.00 | 0.00 | 0.00 | 34 | 1015.1 |
| 20260507021526 | 8 | 229 | 0.0 | 4.8 | 0.00 | 0.00 | 0.00 | 32 | 1015.1 |
| 20260507020026 | 10 | 232 | 3.2 | 4.8 | 0.00 | 0.00 | 0.00 | 30 | 1015.1 |
| 20260507014539 | 10 | 257 | 4.8 | 11.3 | 0.00 | 0.00 | 0.00 | 29 | 1015.1 |
| 20260507013036 | 11 | 247 | 4.8 | 11.3 | 0.00 | 0.00 | 0.00 | 28 | 1015.0 |
| 20260507011529 | 12 | 259 | 4.8 | 14.5 | 0.00 | 0.00 | 0.00 | 25 | 1015.2 |
| 20260507010034 | 12 | 263 | 12.9 | 20.9 | 0.00 | 0.00 | 0.00 | 24 | 1015.1 |
| 20260507004527 | 13 | 261 | 14.5 | 25.7 | 0.00 | 0.00 | 0.00 | 23 | 1015.0 |
| 20260507003013 | 13 | 296 | 9.7 | 17.7 | 0.00 | 0.00 | 0.00 | 23 | 1015.1 |
| 20260507001515 | 13 | 252 | 8.0 | 19.3 | 0.00 | 0.00 | 0.00 | 23 | 1015.2 |
| 20260507000003 | 13 | 284 | 9.7 | 25.7 | 0.00 | 0.00 | 0.00 | 24 | 1015.5 |
| 20260506234506 | 14 | 239 | 9.7 | 20.9 | 0.00 | 0.00 | 0.00 | 24 | 1015.6 |
| 20260506233012 | 13 | 250 | 14.5 | 37.0 | 0.00 | 0.00 | 0.00 | 24 | 1015.5 |
| 20260506231519 | 14 | 249 | 12.9 | 24.1 | 0.00 | 0.00 | 0.00 | 22 | 1015.5 |
| 20260506230018 | 14 | 261 | 16.1 | 25.7 | 0.00 | 0.00 | 0.00 | 22 | 1015.7 |
| 20260506224504 | 13 | 251 | 6.4 | 16.1 | 0.00 | 0.00 | 0.00 | 23 | 1015.8 |
| 20260506223014 | 13 | 281 | 11.3 | 27.4 | 0.00 | 0.00 | 0.00 | 24 | 1016.1 |
| 20260506221521 | 14 | 236 | 8.0 | 25.7 | 0.00 | 0.00 | 0.00 | 24 | 1016.3 |
| 20260506220020 | 13 | 252 | 14.5 | 25.7 | 0.00 | 0.00 | 0.00 | 24 | 1016.5 |
| 20260506214521 | 12 | 329 | 11.3 | 30.6 | 0.00 | 0.00 | 0.00 | 25 | 1016.5 |
| 20260506213006 | 12 | 294 | 16.1 | 35.4 | 0.00 | 0.00 | 0.00 | 26 | 1016.8 |
| 20260506211519 | 14 | 295 | 9.7 | 30.6 | 0.00 | 0.00 | 0.00 | 25 | 1017.2 |
| 20260506210019 | 12 | 261 | 12.9 | 27.4 | 0.00 | 0.00 | 0.00 | 25 | 1017.3 |
| 20260506204523 | 12 | 283 | 16.1 | 24.1 | 0.00 | 0.00 | 0.00 | 26 | 1017.4 |
| 20260506203033 | 13 | 269 | 19.3 | 32.2 | 0.00 | 0.00 | 0.00 | 26 | 1017.8 |
| 20260506201522 | 12 | 252 | 6.4 | 29.0 | 0.00 | 0.00 | 0.00 | 27 | 1017.9 |
| 20260506200015 | 13 | 247 | 16.1 | 29.0 | 0.00 | 0.00 | 0.00 | 27 | 1018.2 |
| 20260506194521 | 11 | 236 | 8.0 | 24.1 | 0.00 | 0.00 | 0.00 | 28 | 1018.1 |
| 20260506193023 | 12 | 255 | 14.5 | 25.7 | 0.00 | 0.00 | 0.00 | 28 | 1018.4 |
| 20260506191524 | 12 | 234 | 9.7 | 30.6 | 0.00 | 0.00 | 0.00 | 28 | 1018.4 |
| 20260506190013 | 11 | 221 | 6.4 | 29.0 | 0.00 | 0.00 | 0.00 | 28 | 1018.6 |
| 20260506184529 | 12 | 317 | 9.7 | 22.5 | 0.00 | 0.00 | 0.00 | 29 | 1018.9 |
| 20260506183022 | 11 | 279 | 12.9 | 35.4 | 0.00 | 0.00 | 0.00 | 29 | 1019.2 |
| 20260506181525 | 11 | 273 | 8.0 | 22.5 | 0.00 | 0.00 | 0.00 | 32 | 1019.2 |
| 20260506180028 | 11 | 352 | 12.9 | 30.6 | 0.00 | 0.00 | 0.00 | 32 | 1019.4 |
| 20260506174529 | 10 | 319 | 14.5 | 29.0 | 0.00 | 0.00 | 0.00 | 32 | 1019.6 |
| 20260506173032 | 10 | 294 | 12.9 | 27.4 | 0.00 | 0.00 | 0.00 | 31 | 1019.6 |
| 20260506171527 | 10 | 304 | 14.5 | 27.4 | 0.00 | 0.00 | 0.00 | 31 | 1019.6 |
| 20260506170029 | 9 | 255 | 12.9 | 25.7 | 0.00 | 0.00 | 0.00 | 33 | 1019.9 |
| 20260506164526 | 10 | 294 | 22.5 | 30.6 | 0.00 | 0.00 | 0.00 | 33 | 1019.8 |
| 20260506163025 | 10 | 277 | 14.5 | 24.1 | 0.00 | 0.00 | 0.00 | 34 | 1019.8 |
| 20260506161527 | 9 | 273 | 11.3 | 27.4 | 0.00 | 0.00 | 0.00 | 35 | 1019.9 |
| 20260506160025 | 9 | 319 | 17.7 | 27.4 | 0.00 | 0.00 | 0.00 | 35 | 1019.9 |
| 20260506154527 | 8 | 318 | 16.1 | 25.7 | 0.00 | 0.00 | 0.00 | 35 | 1020.0 |
| 20260506153016 | 8 | 305 | 14.5 | 24.1 | 0.00 | 0.00 | 0.00 | 37 | 1020.0 |
| 20260506151523 | 8 | 312 | 11.3 | 22.5 | 0.00 | 0.00 | 0.00 | 37 | 1020.1 |
| 20260506150024 | 8 | 342 | 12.9 | 27.4 | 0.00 | 0.00 | 0.00 | 38 | 1020.1 |
| 20260506144508 | 8 | 322 | 9.7 | 22.5 | 0.00 | 0.00 | 0.00 | 39 | 1020.1 |
| 20260506143023 | 7 | 321 | 14.5 | 19.3 | 0.00 | 0.00 | 0.00 | 41 | 1020.0 |
| 20260506141516 | 7 | 320 | 14.5 | 20.9 | 0.00 | 0.00 | 0.00 | 40 | 1019.9 |
| 20260506140024 | 7 | 315 | 9.7 | 19.3 | 0.00 | 0.00 | 0.00 | 45 | 1019.7 |
| 20260506134524 | 6 | 274 | 11.3 | 17.7 | 0.00 | 0.00 | 0.00 | 49 | 1019.7 |
| 20260506133009 | 6 | 300 | 4.8 | 12.9 | 0.00 | 0.00 | 0.00 | 52 | 1019.8 |
| 20260506131516 | 5 | 296 | 8.0 | 14.5 | 0.00 | 0.00 | 0.00 | 55 | 1019.7 |
| 20260506130020 | 5 | 315 | 6.4 | 12.9 | 0.00 | 0.00 | 0.00 | 59 | 1019.7 |
| 20260506124524 | 3 | 311 | 6.4 | 12.9 | 0.00 | 0.00 | 0.00 | 61 | 1019.7 |
| 20260506123028 | 2 | 315 | 4.8 | 11.3 | 0.00 | 0.00 | 0.00 | 66 | 1019.5 |
| 20260506121513 | 1 | 233 | 0.0 | 3.2 | 0.00 | 0.00 | 0.00 | 73 | 1019.4 |
| 20260506120020 | 0 | 190 | 0.0 | 1.6 | 0.00 | 0.00 | 0.00 | 72 | 1019.3 |
| 20260506114521 | 1 | 190 | 0.0 | 0.0 | 0.00 | 0.00 | 0.00 | 72 | 1018.8 |
| 20260506113026 | 1 | 190 | 0.0 | 0.0 | 0.00 | 0.00 | 0.00 | 70 | 1018.6 |
| 20260506111526 | 1 | 190 | 0.0 | 1.6 | 0.00 | 0.00 | 0.00 | 68 | 1018.6 |
| 20260506110021 | 1 | 190 | 0.0 | 0.0 | 0.00 | 0.00 | 0.00 | 70 | 1018.5 |
| 20260506104522 | 1 | 190 | 0.0 | 6.4 | 0.00 | 0.00 | 0.00 | 70 | 1018.4 |
| 20260506103029 | 1 | 38 | 0.0 | 3.2 | 0.00 | 0.00 | 0.00 | 69 | 1018.4 |
| 20260506101540 | 1 | 38 | 0.0 | 0.0 | 0.00 | 0.00 | 0.00 | 67 | 1018.2 |
| 20260506100027 | 1 | 38 | 0.0 | 0.0 | 0.00 | 0.00 | 0.00 | 70 | 1018.1 |
| 20260506094522 | 1 | 38 | 0.0 | 0.0 | 0.00 | 0.00 | 0.00 | 67 | 1017.9 |